Time;durP1;ratioP1;P1;durP2;ratioP2;P2;SDS_P1;SDS_P2;PMS_P1;PMS_P2;Temp;Humidity;BMP_temperature;BMP_pressure;BME280_temperature;BME280_humidity;BME280_pressure;Samples;Min_cycle;Max_cycle;Signal;HPM_P1;HPM_P2
2023/10/28 00:00:09;;;;;;;6.43;1.20;;;18.90;96.70;;;;;;5003934;28;20082;-75
2023/10/28 00:02:37;;;;;;;8.27;1.45;;;18.90;96.70;;;;;;5009052;28;20073;-75
2023/10/28 00:05:06;;;;;;;8.07;1.80;;;19.00;96.70;;;;;;5017301;28;20061;-75
2023/10/28 00:07:34;;;;;;;8.18;1.98;;;19.00;96.70;;;;;;5007766;28;20041;-76
2023/10/28 00:10:02;;;;;;;6.55;0.95;;;19.00;96.70;;;;;;5006531;28;20053;-76
2023/10/28 00:12:29;;;;;;;8.00;1.15;;;18.90;96.70;;;;;;5005356;28;20117;-75
2023/10/28 00:14:57;;;;;;;7.50;1.17;;;18.80;96.70;;;;;;5006169;28;20072;-75
2023/10/28 00:17:26;;;;;;;6.03;1.55;;;18.80;96.70;;;;;;5004539;28;20204;-76
2023/10/28 00:19:55;;;;;;;6.85;1.02;;;18.70;96.70;;;;;;5004456;28;20054;-76
2023/10/28 00:22:22;;;;;;;8.45;1.33;;;18.70;96.70;;;;;;5012814;28;20064;-75
2023/10/28 00:24:50;;;;;;;6.75;1.60;;;18.70;96.70;;;;;;5015894;28;20280;-75
2023/10/28 00:27:18;;;;;;;6.30;1.08;;;18.60;96.70;;;;;;5015496;28;20077;-75
2023/10/28 00:29:51;;;;;;;5.22;1.20;;;18.60;96.70;;;;;;5012979;28;21387;-75
2023/10/28 00:32:23;;;;;;;8.40;1.23;;;18.50;96.70;;;;;;5006371;28;20050;-75
2023/10/28 00:34:52;;;;;;;7.68;1.25;;;18.50;96.70;;;;;;5012043;28;20156;-76
2023/10/28 00:37:20;;;;;;;5.75;1.27;;;18.30;96.70;;;;;;5012181;28;20065;-75
2023/10/28 00:39:48;;;;;;;6.20;1.20;;;18.30;96.70;;;;;;4987402;28;20579;-77
2023/10/28 00:42:17;;;;;;;9.38;1.48;;;18.30;96.70;;;;;;5005458;28;20033;-75
2023/10/28 00:44:45;;;;;;;10.90;1.30;;;18.30;96.70;;;;;;5003892;28;20092;-75
2023/10/28 00:47:14;;;;;;;8.18;1.02;;;18.30;96.70;;;;;;4997696;28;20049;-75
2023/10/28 00:49:43;;;;;;;6.40;1.40;;;18.30;96.70;;;;;;5015256;28;20080;-75
2023/10/28 00:52:12;;;;;;;4.85;1.08;;;18.40;96.70;;;;;;5002477;28;20038;-75
2023/10/28 00:54:41;;;;;;;6.95;1.25;;;18.50;96.70;;;;;;5015777;28;20148;-75
2023/10/28 00:57:09;;;;;;;5.50;0.85;;;18.60;96.70;;;;;;5017795;28;20065;-75
2023/10/28 00:59:38;;;;;;;7.35;1.20;;;18.60;96.70;;;;;;5013052;28;20053;-75
2023/10/28 01:02:05;;;;;;;7.18;1.20;;;18.60;96.70;;;;;;4998183;28;20045;-76
2023/10/28 01:04:34;;;;;;;8.25;1.83;;;18.70;96.70;;;;;;5002577;28;20107;-75
2023/10/28 01:07:02;;;;;;;7.63;1.35;;;18.80;96.70;;;;;;4986369;28;20048;-75
2023/10/28 01:09:32;;;;;;;5.95;1.08;;;18.80;96.70;;;;;;4997825;28;20526;-75
2023/10/28 01:12:01;;;;;;;6.97;1.10;;;18.80;96.70;;;;;;4990798;28;20050;-76
2023/10/28 01:14:29;;;;;;;6.82;1.27;;;18.80;96.70;;;;;;5010906;28;20088;-75
2023/10/28 01:16:57;;;;;;;7.40;1.13;;;18.90;96.70;;;;;;5010866;28;20034;-75
2023/10/28 01:19:26;;;;;;;8.02;1.15;;;18.90;96.70;;;;;;5021928;28;20146;-75
2023/10/28 01:21:56;;;;;;;8.60;1.40;;;18.90;96.70;;;;;;5013397;28;20083;-75
2023/10/28 01:24:24;;;;;;;7.68;1.38;;;18.90;96.70;;;;;;5011701;28;20525;-76
2023/10/28 01:26:52;;;;;;;5.53;1.23;;;18.90;96.70;;;;;;5002300;28;20038;-75
2023/10/28 01:29:20;;;;;;;8.52;1.65;;;18.90;96.70;;;;;;5020223;28;20125;-75
2023/10/28 01:31:48;;;;;;;7.00;1.40;;;18.90;96.70;;;;;;5011993;28;20048;-75
2023/10/28 01:34:16;;;;;;;6.30;1.00;;;18.80;96.70;;;;;;5002248;28;20344;-75
2023/10/28 01:36:45;;;;;;;10.02;1.65;;;18.70;96.70;;;;;;5006679;28;20041;-75
2023/10/28 01:39:15;;;;;;;7.03;0.95;;;18.70;96.70;;;;;;5012343;28;20527;-75
2023/10/28 01:41:43;;;;;;;6.22;0.90;;;18.60;96.70;;;;;;5017939;28;20041;-75
2023/10/28 01:44:11;;;;;;;8.45;1.95;;;18.50;96.70;;;;;;5016691;28;20037;-75
2023/10/28 01:46:40;;;;;;;10.20;1.40;;;18.50;96.70;;;;;;5008202;28;20049;-75
2023/10/28 01:49:08;;;;;;;11.10;1.75;;;18.40;96.70;;;;;;5017990;28;20671;-77
2023/10/28 01:51:36;;;;;;;7.90;0.90;;;18.40;96.70;;;;;;5007316;28;20050;-77
2023/10/28 01:54:04;;;;;;;8.70;1.58;;;18.30;96.70;;;;;;5016408;28;20042;-75
2023/10/28 01:56:34;;;;;;;8.60;1.30;;;18.30;96.70;;;;;;5014830;28;20050;-77
2023/10/28 01:59:02;;;;;;;6.53;1.30;;;18.20;96.70;;;;;;5008289;28;20045;-76
2023/10/28 02:01:30;;;;;;;9.15;1.45;;;18.20;96.70;;;;;;4989447;28;20038;-75
2023/10/28 02:03:58;;;;;;;5.22;0.63;;;18.10;96.70;;;;;;5007106;28;20045;-77
2023/10/28 02:06:26;;;;;;;5.13;1.08;;;18.10;96.70;;;;;;4985591;28;20050;-77
2023/10/28 02:08:54;;;;;;;8.25;0.90;;;18.10;96.70;;;;;;5005104;28;20396;-78
2023/10/28 02:11:23;;;;;;;6.65;1.08;;;18.10;96.70;;;;;;5004486;28;20037;-77
2023/10/28 02:13:52;;;;;;;5.65;1.25;;;18.00;96.70;;;;;;5004117;28;20061;-75
2023/10/28 02:16:21;;;;;;;7.68;1.00;;;18.00;96.70;;;;;;5002276;28;20066;-76
2023/10/28 02:18:49;;;;;;;7.65;0.90;;;18.00;96.70;;;;;;5002828;28;20095;-75
2023/10/28 02:21:20;;;;;;;8.52;1.00;;;18.00;96.70;;;;;;5002381;28;20046;-75
2023/10/28 02:23:48;;;;;;;7.68;1.17;;;18.00;96.70;;;;;;5008561;28;20034;-75
2023/10/28 02:26:16;;;;;;;7.95;1.42;;;18.00;96.70;;;;;;5012849;28;20046;-76
2023/10/28 02:28:45;;;;;;;4.93;0.90;;;18.00;96.70;;;;;;5019897;28;20061;-76
2023/10/28 02:31:14;;;;;;;7.72;1.00;;;18.00;96.70;;;;;;4996288;28;20073;-76
2023/10/28 02:33:42;;;;;;;5.80;1.10;;;18.00;96.70;;;;;;4999915;28;20049;-75
2023/10/28 02:36:11;;;;;;;5.55;1.17;;;17.90;96.70;;;;;;5010331;28;20034;-75
2023/10/28 02:38:40;;;;;;;7.10;0.80;;;17.90;96.70;;;;;;5002259;28;20512;-75
2023/10/28 02:41:08;;;;;;;5.35;1.02;;;17.90;96.70;;;;;;5002890;28;20069;-75
2023/10/28 02:43:36;;;;;;;6.38;1.10;;;17.90;96.70;;;;;;5007657;28;20165;-75
2023/10/28 02:46:04;;;;;;;7.13;1.00;;;18.00;96.70;;;;;;5007698;28;20683;-75
2023/10/28 02:48:34;;;;;;;5.18;1.30;;;18.00;96.70;;;;;;5005632;28;20073;-76
2023/10/28 02:51:04;;;;;;;5.15;0.95;;;18.00;96.70;;;;;;5001498;28;20054;-75
2023/10/28 02:53:32;;;;;;;6.15;1.08;;;18.00;96.70;;;;;;5021433;28;20042;-75
2023/10/28 02:56:03;;;;;;;7.20;1.10;;;18.00;96.70;;;;;;5005629;28;20050;-75
2023/10/28 02:58:31;;;;;;;7.40;1.23;;;18.00;96.70;;;;;;5003724;28;20455;-76
2023/10/28 03:01:09;;;;;;;6.95;1.20;;;18.00;96.70;;;;;;5004021;28;20132;-76
2023/10/28 03:03:40;;;;;;;5.50;0.77;;;18.00;96.70;;;;;;5007285;28;20050;-76
2023/10/28 03:06:10;;;;;;;4.78;0.77;;;18.00;96.70;;;;;;5004527;28;20061;-78
2023/10/28 03:08:38;;;;;;;5.40;0.88;;;18.00;96.70;;;;;;5006164;28;20057;-78
2023/10/28 03:11:07;;;;;;;3.78;0.73;;;18.00;96.70;;;;;;5006175;28;20046;-77
2023/10/28 03:13:35;;;;;;;6.90;1.08;;;17.90;96.70;;;;;;5023376;28;20450;-77
2023/10/28 03:16:04;;;;;;;7.38;1.08;;;17.90;96.70;;;;;;5013744;28;20041;-78
2023/10/28 03:18:32;;;;;;;5.45;0.90;;;17.80;96.70;;;;;;5007698;28;20049;-78
2023/10/28 03:21:01;;;;;;;3.65;0.80;;;17.70;96.70;;;;;;5010245;28;20139;-77
2023/10/28 03:23:29;;;;;;;5.68;1.08;;;17.70;96.70;;;;;;5020294;28;20049;-77
2023/10/28 03:25:57;;;;;;;6.13;1.10;;;17.60;96.70;;;;;;5013228;28;20099;-78
2023/10/28 03:28:25;;;;;;;4.32;0.60;;;17.60;96.70;;;;;;5007437;28;20626;-77
2023/10/28 03:30:53;;;;;;;8.70;1.00;;;17.70;96.70;;;;;;5004336;28;20041;-77
2023/10/28 03:33:22;;;;;;;9.18;1.27;;;17.60;96.70;;;;;;5005714;28;20054;-77
2023/10/28 03:35:50;;;;;;;8.70;1.15;;;17.60;96.70;;;;;;4988077;28;20048;-76
2023/10/28 03:38:20;;;;;;;11.35;2.50;;;17.60;96.70;;;;;;4999078;28;20049;-78
2023/10/28 03:40:47;;;;;;;4.95;0.95;;;17.60;96.70;;;;;;5000665;28;20096;-77
2023/10/28 03:43:15;;;;;;;5.57;1.00;;;17.50;96.70;;;;;;5012323;28;20049;-77
2023/10/28 03:45:43;;;;;;;7.57;1.02;;;17.50;96.70;;;;;;5025554;28;20087;-76
2023/10/28 03:48:11;;;;;;;2.78;0.70;;;17.40;96.70;;;;;;5018466;28;20128;-76
2023/10/28 03:50:40;;;;;;;5.57;1.10;;;17.50;96.70;;;;;;5002962;28;20578;-78
2023/10/28 03:53:08;;;;;;;7.05;1.40;;;17.50;96.70;;;;;;5006959;28;20049;-77
2023/10/28 03:55:38;;;;;;;5.22;0.93;;;17.60;96.70;;;;;;5010024;28;20049;-78
2023/10/28 03:58:06;;;;;;;7.63;0.93;;;17.60;96.70;;;;;;5008604;28;20161;-77
2023/10/28 04:00:34;;;;;;;8.45;1.58;;;17.50;96.70;;;;;;5003637;28;20396;-78
2023/10/28 04:03:02;;;;;;;10.38;1.33;;;17.40;96.70;;;;;;5005769;28;20046;-78
2023/10/28 04:05:29;;;;;;;4.15;1.13;;;17.40;96.70;;;;;;5006904;28;20507;-76
2023/10/28 04:07:57;;;;;;;7.10;0.85;;;17.40;96.70;;;;;;5005251;28;20137;-76
2023/10/28 04:10:27;;;;;;;7.80;0.90;;;17.30;96.70;;;;;;4985560;28;20042;-78
2023/10/28 04:12:56;;;;;;;4.55;0.80;;;17.30;96.70;;;;;;4999886;28;20041;-77
2023/10/28 04:15:29;;;;;;;8.60;0.98;;;17.30;96.70;;;;;;5005940;28;20042;-77
2023/10/28 04:17:57;;;;;;;8.57;1.15;;;17.30;96.70;;;;;;5004929;28;20045;-77
2023/10/28 04:20:25;;;;;;;5.90;1.10;;;17.20;96.70;;;;;;4997882;28;20046;-77
2023/10/28 04:22:53;;;;;;;3.42;0.65;;;17.30;96.70;;;;;;5008447;28;20112;-78
2023/10/28 04:25:21;;;;;;;7.82;1.17;;;17.20;96.70;;;;;;5018581;28;20049;-77
2023/10/28 04:27:50;;;;;;;6.03;1.15;;;17.10;96.70;;;;;;5012628;28;20034;-77
2023/10/28 04:30:20;;;;;;;2.97;0.90;;;17.10;96.70;;;;;;5017915;28;20049;-78
2023/10/28 04:32:48;;;;;;;5.72;0.90;;;17.10;96.70;;;;;;5007685;28;20054;-77
2023/10/28 04:35:16;;;;;;;9.55;1.30;;;17.10;96.70;;;;;;5004134;28;20495;-77
2023/10/28 04:37:54;;;;;;;4.18;1.08;;;17.10;96.70;;;;;;5004612;28;20049;-77
2023/10/28 04:40:24;;;;;;;4.95;0.77;;;17.00;96.70;;;;;;4987854;28;20381;-78
2023/10/28 04:42:53;;;;;;;13.20;1.52;;;17.00;96.70;;;;;;5014844;28;20416;-77
2023/10/28 04:45:22;;;;;;;8.63;1.10;;;16.90;96.70;;;;;;5013352;28;20229;-79
2023/10/28 04:47:50;;;;;;;5.25;1.20;;;16.80;96.70;;;;;;5009976;28;20136;-77
2023/10/28 04:50:19;;;;;;;3.70;0.50;;;16.70;96.70;;;;;;5011960;28;20069;-79
2023/10/28 04:52:47;;;;;;;4.53;1.20;;;16.70;96.70;;;;;;4997596;28;20076;-77
2023/10/28 04:55:15;;;;;;;2.58;0.70;;;16.70;96.70;;;;;;5003190;28;20065;-79
2023/10/28 04:57:43;;;;;;;6.20;1.00;;;16.70;96.70;;;;;;5007356;28;20061;-77
2023/10/28 05:00:13;;;;;;;6.60;1.30;;;16.70;96.70;;;;;;5003033;28;20045;-77
2023/10/28 05:02:44;;;;;;;4.18;0.80;;;16.80;96.70;;;;;;5001722;28;20533;-77
2023/10/28 05:05:15;;;;;;;4.45;1.13;;;16.80;96.70;;;;;;5004101;28;20702;-78
2023/10/28 05:07:43;;;;;;;4.43;0.88;;;16.90;96.70;;;;;;5012622;28;20126;-77
2023/10/28 05:10:11;;;;;;;4.07;0.80;;;16.90;96.70;;;;;;5002303;28;20058;-77
2023/10/28 05:12:41;;;;;;;5.63;1.00;;;16.80;96.70;;;;;;5006652;28;20045;-77
2023/10/28 05:15:10;;;;;;;4.03;1.08;;;16.80;96.70;;;;;;5006574;28;20042;-76
2023/10/28 05:17:38;;;;;;;6.03;0.85;;;16.80;96.70;;;;;;5003982;28;20066;-78
2023/10/28 05:20:08;;;;;;;3.95;0.90;;;16.70;96.70;;;;;;5019621;28;20120;-76
2023/10/28 05:22:37;;;;;;;12.35;1.20;;;16.70;96.70;;;;;;5009675;28;20066;-77
2023/10/28 05:25:09;;;;;;;5.60;1.00;;;16.70;96.70;;;;;;5013748;28;20042;-77
2023/10/28 05:27:37;;;;;;;4.32;0.98;;;16.80;96.70;;;;;;5013864;28;20054;-77
2023/10/28 05:30:06;;;;;;;6.22;1.00;;;16.80;96.70;;;;;;5013456;28;20049;-77
2023/10/28 05:32:34;;;;;;;4.40;0.88;;;16.80;96.70;;;;;;5004525;28;20068;-77
2023/10/28 05:35:02;;;;;;;5.32;1.30;;;16.80;96.70;;;;;;5003195;28;20099;-77
2023/10/28 05:37:31;;;;;;;4.88;0.93;;;16.80;96.70;;;;;;5013225;28;20492;-76
2023/10/28 05:39:59;;;;;;;7.18;1.20;;;16.80;96.70;;;;;;5014529;28;20048;-77
2023/10/28 05:42:27;;;;;;;7.07;1.27;;;16.90;96.70;;;;;;4995829;28;20165;-77
2023/10/28 05:44:55;;;;;;;5.70;1.50;;;16.90;96.70;;;;;;5004317;28;20046;-77
2023/10/28 05:47:24;;;;;;;8.85;1.80;;;16.90;96.70;;;;;;5004450;28;20477;-76
2023/10/28 05:49:52;;;;;;;9.05;1.42;;;16.80;96.70;;;;;;5004236;28;20470;-77
2023/10/28 05:52:20;;;;;;;7.50;1.55;;;16.80;96.70;;;;;;5005016;28;20137;-77
2023/10/28 05:54:50;;;;;;;4.50;1.40;;;16.80;96.70;;;;;;5008539;28;20053;-78
2023/10/28 05:57:17;;;;;;;6.40;1.92;;;16.70;96.70;;;;;;5020990;28;20587;-82
2023/10/28 05:59:45;;;;;;;6.90;1.35;;;16.70;96.70;;;;;;5005214;28;20508;-79
2023/10/28 06:02:15;;;;;;;4.15;1.52;;;16.60;96.70;;;;;;5000549;28;20061;-78
2023/10/28 06:04:43;;;;;;;5.60;1.92;;;16.60;96.70;;;;;;5004558;28;20676;-80
2023/10/28 06:07:11;;;;;;;5.65;1.48;;;16.60;96.70;;;;;;5003805;28;20054;-79
2023/10/28 06:09:39;;;;;;;8.48;1.55;;;16.50;96.70;;;;;;4997316;28;20069;-79
2023/10/28 06:12:08;;;;;;;5.55;1.30;;;16.50;96.70;;;;;;5005081;28;20051;-86
2023/10/28 06:14:36;;;;;;;7.22;1.30;;;16.50;96.70;;;;;;5006561;28;20045;-80
2023/10/28 06:17:04;;;;;;;10.02;1.65;;;16.60;96.70;;;;;;5005752;28;20046;-80
2023/10/28 06:19:32;;;;;;;7.43;1.30;;;16.60;96.70;;;;;;5004898;28;20077;-79
2023/10/28 06:22:01;;;;;;;7.57;1.58;;;16.60;96.70;;;;;;5005067;28;20046;-83
2023/10/28 06:24:29;;;;;;;5.68;0.98;;;16.60;96.70;;;;;;5011660;28;20045;-77
2023/10/28 06:26:57;;;;;;;4.97;1.50;;;16.70;96.70;;;;;;5011042;28;20058;-76
2023/10/28 06:29:27;;;;;;;7.47;1.90;;;16.70;96.70;;;;;;5003088;28;20054;-77
2023/10/28 06:31:58;;;;;;;4.10;0.88;;;16.70;96.70;;;;;;5005108;28;20491;-77
2023/10/28 06:34:28;;;;;;;6.10;1.20;;;16.70;96.70;;;;;;5004680;28;20050;-77
2023/10/28 06:36:56;;;;;;;6.20;1.38;;;16.70;96.70;;;;;;5011525;28;20049;-77
2023/10/28 06:39:24;;;;;;;6.32;1.25;;;16.80;96.70;;;;;;5006511;28;20100;-77
2023/10/28 06:41:52;;;;;;;4.95;1.25;;;16.80;96.70;;;;;;5022271;28;20046;-79
2023/10/28 06:44:24;;;;;;;5.78;1.15;;;16.80;96.70;;;;;;5008589;28;20125;-77
2023/10/28 06:46:53;;;;;;;8.52;1.10;;;16.90;96.70;;;;;;5016008;28;20141;-78
2023/10/28 06:49:21;;;;;;;3.95;1.05;;;16.90;96.70;;;;;;5006664;28;20050;-78
2023/10/28 06:51:50;;;;;;;3.95;1.20;;;16.90;96.70;;;;;;5016165;28;20053;-78
2023/10/28 06:54:18;;;;;;;4.18;1.05;;;16.80;96.70;;;;;;5006474;28;20042;-77
2023/10/28 06:56:46;;;;;;;9.52;1.55;;;16.80;96.70;;;;;;5005780;28;20591;-77
2023/10/28 06:59:14;;;;;;;6.90;1.10;;;16.80;96.70;;;;;;5006543;28;20050;-79
2023/10/28 07:01:42;;;;;;;14.40;1.40;;;16.80;96.70;;;;;;5003739;28;20137;-79
2023/10/28 07:04:11;;;;;;;5.80;0.90;;;16.90;96.70;;;;;;5006541;28;20042;-77
2023/10/28 07:06:40;;;;;;;7.32;0.95;;;16.90;96.70;;;;;;5014661;28;20049;-77
2023/10/28 07:09:08;;;;;;;3.28;0.95;;;16.90;96.70;;;;;;5024709;28;20046;-77
2023/10/28 07:11:36;;;;;;;4.35;1.20;;;16.90;96.70;;;;;;5007632;28;20455;-77
2023/10/28 07:14:04;;;;;;;4.95;1.02;;;16.80;96.70;;;;;;5006235;28;20133;-78
2023/10/28 07:16:34;;;;;;;4.95;0.80;;;16.90;96.70;;;;;;5006386;28;20146;-79
2023/10/28 07:19:02;;;;;;;4.60;1.20;;;16.90;96.70;;;;;;5013460;28;20149;-78
2023/10/28 07:21:32;;;;;;;5.85;1.75;;;17.00;96.70;;;;;;5024481;28;20049;-81
2023/10/28 07:24:01;;;;;;;4.50;1.10;;;17.10;96.70;;;;;;5000053;28;20080;-80
2023/10/28 07:26:29;;;;;;;5.50;1.38;;;17.10;96.70;;;;;;5010122;28;20435;-76
2023/10/28 07:28:57;;;;;;;5.22;1.00;;;17.10;96.70;;;;;;5018784;28;20049;-77
2023/10/28 07:31:26;;;;;;;4.68;1.38;;;17.10;96.70;;;;;;5007952;28;20042;-79
2023/10/28 07:33:56;;;;;;;8.93;4.22;;;17.10;96.70;;;;;;5006190;28;20057;-79
2023/10/28 07:36:24;;;;;;;8.75;1.75;;;17.20;96.70;;;;;;4989456;28;20061;-79
2023/10/28 07:38:53;;;;;;;8.23;2.03;;;17.30;96.70;;;;;;5000570;28;20680;-80
2023/10/28 07:41:21;;;;;;;5.72;2.00;;;17.40;96.70;;;;;;5000026;28;20511;-78
2023/10/28 07:43:49;;;;;;;7.15;1.67;;;17.40;96.70;;;;;;5004474;28;20141;-77
2023/10/28 07:46:17;;;;;;;6.00;1.40;;;17.40;96.70;;;;;;5006079;28;20042;-79
2023/10/28 07:48:45;;;;;;;4.10;1.20;;;17.40;96.70;;;;;;5005831;28;20456;-77
2023/10/28 07:51:16;;;;;;;6.97;1.25;;;17.40;96.70;;;;;;4999811;28;20053;-77
2023/10/28 07:53:47;;;;;;;8.02;1.33;;;17.40;96.70;;;;;;5004025;28;20443;-76
2023/10/28 07:56:16;;;;;;;4.70;1.42;;;17.40;96.70;;;;;;5011500;28;20045;-76
2023/10/28 07:58:44;;;;;;;12.00;1.88;;;17.50;96.70;;;;;;4998038;28;20048;-77
2023/10/28 08:01:15;;;;;;;4.47;0.90;;;17.40;96.70;;;;;;5006920;28;20057;-77
2023/10/28 08:03:45;;;;;;;6.55;1.23;;;17.40;96.70;;;;;;5005054;28;20050;-77
2023/10/28 08:06:13;;;;;;;6.97;1.17;;;17.40;96.70;;;;;;5005240;28;20038;-77
2023/10/28 08:09:05;;;;;;;6.25;1.30;;;17.50;96.70;;;;;;5024536;28;20308;-77
2023/10/28 08:11:35;;;;;;;5.28;1.70;;;17.60;96.70;;;;;;5016281;28;20103;-79
2023/10/28 08:14:03;;;;;;;8.98;1.75;;;17.70;96.70;;;;;;5007043;28;20356;-79
2023/10/28 08:16:34;;;;;;;6.55;1.58;;;17.70;96.70;;;;;;5006168;28;20057;-77
2023/10/28 08:19:03;;;;;;;8.80;1.73;;;17.80;96.70;;;;;;5017591;28;20045;-77
2023/10/28 08:21:32;;;;;;;4.93;1.00;;;17.90;96.70;;;;;;5019596;28;20050;-79
2023/10/28 08:24:00;;;;;;;6.78;1.63;;;17.90;96.70;;;;;;5006095;28;20042;-80
2023/10/28 08:26:28;;;;;;;4.70;1.45;;;17.90;96.70;;;;;;5018650;28;20046;-79
2023/10/28 08:29:00;;;;;;;8.65;1.90;;;18.00;96.70;;;;;;5004375;28;20661;-78
2023/10/28 08:31:28;;;;;;;9.93;1.40;;;18.10;96.70;;;;;;5009837;28;20053;-79
2023/10/28 08:33:55;;;;;;;8.70;1.35;;;18.10;96.70;;;;;;5017970;28;20593;-78
2023/10/28 08:36:25;;;;;;;4.85;1.40;;;18.10;96.70;;;;;;5000642;28;20136;-77
2023/10/28 08:38:53;;;;;;;5.22;1.50;;;18.10;96.70;;;;;;4993410;28;20062;-78
2023/10/28 08:41:24;;;;;;;6.97;1.58;;;18.20;96.70;;;;;;4997875;28;20041;-78
2023/10/28 08:43:53;;;;;;;5.47;1.15;;;18.20;96.70;;;;;;5004556;28;20049;-80
2023/10/28 08:46:23;;;;;;;8.07;2.42;;;18.30;96.70;;;;;;4988369;28;20046;-79
2023/10/28 08:48:53;;;;;;;8.73;1.88;;;18.40;96.70;;;;;;5005850;28;20034;-80
2023/10/28 08:51:21;;;;;;;7.53;1.75;;;18.40;96.70;;;;;;4999881;28;20050;-78
2023/10/28 08:53:55;;;;;;;7.60;1.90;;;18.30;96.70;;;;;;4997346;28;20045;-78
2023/10/28 08:56:25;;;;;;;8.00;1.90;;;18.30;96.70;;;;;;4997804;28;20480;-79
2023/10/28 08:58:53;;;;;;;5.47;1.88;;;18.30;96.70;;;;;;4982218;28;20041;-78
2023/10/28 09:01:24;;;;;;;6.90;2.00;;;18.20;96.70;;;;;;4984525;28;20093;-78
2023/10/28 09:03:54;;;;;;;5.47;2.38;;;18.20;96.70;;;;;;4982775;28;20523;-78
2023/10/28 09:06:23;;;;;;;8.60;2.20;;;18.20;96.70;;;;;;4994612;28;20049;-79
2023/10/28 09:08:50;;;;;;;5.78;1.52;;;18.20;96.70;;;;;;5005596;28;20042;-80
2023/10/28 09:11:21;;;;;;;7.20;2.13;;;18.20;96.70;;;;;;5005637;28;20048;-80
2023/10/28 09:13:49;;;;;;;12.52;6.60;;;18.20;96.70;;;;;;5014028;28;20104;-79
2023/10/28 09:16:17;;;;;;;9.80;5.82;;;18.30;96.70;;;;;;5015230;28;20478;-81
2023/10/28 09:18:49;;;;;;;7.68;2.22;;;18.30;96.70;;;;;;5000808;28;20041;-77
2023/10/28 09:21:19;;;;;;;6.97;2.47;;;18.30;96.70;;;;;;4999230;28;20038;-78
2023/10/28 09:23:47;;;;;;;7.10;2.55;;;18.30;96.70;;;;;;5004646;28;20046;-78
2023/10/28 09:26:15;;;;;;;7.18;2.38;;;18.40;96.70;;;;;;4996904;28;20850;-78
2023/10/28 09:28:44;;;;;;;10.30;2.92;;;18.60;96.70;;;;;;4999214;28;20053;-76
2023/10/28 09:31:12;;;;;;;6.78;2.20;;;18.90;96.70;;;;;;5012417;28;20500;-78
2023/10/28 09:33:40;;;;;;;6.30;2.05;;;18.90;96.70;;;;;;5012108;28;20053;-78
2023/10/28 09:36:10;;;;;;;8.25;2.72;;;19.00;96.70;;;;;;5011436;28;20046;-77
2023/10/28 09:38:40;;;;;;;9.63;4.90;;;19.10;96.70;;;;;;5005213;28;20068;-78
2023/10/28 09:41:09;;;;;;;13.48;5.13;;;19.30;96.70;;;;;;5005003;28;20137;-77
2023/10/28 09:43:40;;;;;;;8.38;3.70;;;19.40;96.70;;;;;;4996437;28;20108;-78
2023/10/28 09:46:08;;;;;;;8.68;3.80;;;19.50;96.70;;;;;;4996085;28;20038;-77
2023/10/28 09:48:38;;;;;;;16.90;3.83;;;19.50;96.70;;;;;;5003723;28;20192;-79
2023/10/28 09:51:07;;;;;;;7.25;3.92;;;19.50;96.70;;;;;;5003563;28;20053;-78
2023/10/28 09:53:38;;;;;;;9.43;4.63;;;19.60;96.70;;;;;;5003931;28;20168;-79
2023/10/28 09:56:07;;;;;;;9.05;3.60;;;19.60;96.70;;;;;;5005672;28;20037;-80
2023/10/28 09:58:41;;;;;;;7.68;3.65;;;19.60;96.70;;;;;;5012887;28;20045;-79
2023/10/28 10:01:19;;;;;;;12.48;3.65;;;19.60;96.70;;;;;;5013472;28;20515;-79
2023/10/28 10:04:11;;;;;;;12.52;4.13;;;19.80;96.70;;;;;;5005502;28;20600;-80
2023/10/28 10:06:39;;;;;;;10.75;3.10;;;20.00;96.70;;;;;;5015684;28;20076;-78
2023/10/28 10:09:12;;;;;;;10.98;3.03;;;20.20;96.70;;;;;;4997531;28;20038;-80
2023/10/28 10:11:44;;;;;;;7.78;2.55;;;20.40;96.70;;;;;;4996364;28;20054;-80
2023/10/28 10:14:12;;;;;;;9.93;2.28;;;20.60;96.70;;;;;;5005405;28;20656;-80
2023/10/28 10:16:48;;;;;;;6.15;2.42;;;20.90;96.70;;;;;;5001630;28;20133;-78
2023/10/28 10:19:22;;;;;;;9.02;2.70;;;20.80;96.70;;;;;;4999068;28;20586;-78
2023/10/28 10:21:53;;;;;;;16.40;2.25;;;20.90;96.70;;;;;;4996435;28;20049;-78
2023/10/28 10:24:24;;;;;;;12.02;2.33;;;21.20;96.70;;;;;;5001583;28;20141;-80
2023/10/28 10:26:55;;;;;;;8.73;2.28;;;21.40;96.70;;;;;;5003111;28;20050;-79
2023/10/28 10:29:29;;;;;;;7.75;1.30;;;21.40;96.70;;;;;;5005722;28;20045;-79
2023/10/28 10:31:57;;;;;;;8.07;1.30;;;21.30;96.70;;;;;;5012832;28;20073;-79
2023/10/28 10:34:43;;;;;;;9.00;1.25;;;21.30;96.70;;;;;;5019491;28;20097;-77
2023/10/28 10:37:21;;;;;;;9.70;1.50;;;21.40;96.70;;;;;;5001792;28;20085;-80
2023/10/28 10:39:50;;;;;;;7.35;1.20;;;21.50;96.70;;;;;;5012548;28;20049;-79
2023/10/28 10:42:19;;;;;;;5.07;0.80;;;21.50;96.70;;;;;;5016087;28;20050;-80
2023/10/28 10:44:46;;;;;;;6.90;1.55;;;21.50;96.70;;;;;;5014541;28;20053;-79
2023/10/28 10:47:17;;;;;;;6.57;1.20;;;21.60;96.70;;;;;;4988978;28;20037;-79
2023/10/28 10:49:48;;;;;;;6.05;0.82;;;21.70;96.70;;;;;;5005386;28;20078;-79
2023/10/28 10:52:18;;;;;;;6.38;1.33;;;21.70;96.70;;;;;;5004758;28;20073;-79
2023/10/28 10:54:47;;;;;;;4.85;1.20;;;21.80;96.70;;;;;;5013163;28;20054;-79
2023/10/28 10:57:16;;;;;;;4.18;1.15;;;22.00;96.70;;;;;;5014294;28;20041;-78
2023/10/28 10:59:45;;;;;;;6.10;0.82;;;22.10;96.70;;;;;;5011415;28;20458;-80
2023/10/28 11:02:14;;;;;;;6.05;0.70;;;22.10;96.70;;;;;;5013357;28;20045;-81
2023/10/28 11:04:43;;;;;;;4.00;0.95;;;22.10;96.70;;;;;;5003107;28;20045;-80
2023/10/28 11:07:10;;;;;;;2.90;0.70;;;22.10;96.70;;;;;;5013756;28;20049;-80
2023/10/28 11:09:42;;;;;;;2.90;0.52;;;22.00;96.70;;;;;;5021940;28;20140;-79
2023/10/28 11:12:10;;;;;;;4.07;0.82;;;22.00;96.70;;;;;;4995713;28;20037;-78
2023/10/28 11:14:41;;;;;;;4.32;0.80;;;22.10;96.70;;;;;;4998693;28;20117;-80
2023/10/28 11:17:09;;;;;;;5.68;0.57;;;22.10;96.70;;;;;;5000364;28;21102;-79
2023/10/28 11:19:37;;;;;;;3.58;0.85;;;22.30;96.70;;;;;;5000685;28;20045;-79
2023/10/28 11:22:06;;;;;;;3.47;0.57;;;22.40;96.70;;;;;;4997296;28;20103;-78
2023/10/28 11:24:35;;;;;;;5.43;0.85;;;22.30;96.70;;;;;;5001099;28;20496;-80
2023/10/28 11:27:03;;;;;;;4.30;0.60;;;22.40;96.70;;;;;;5002801;28;20049;-79
2023/10/28 11:29:35;;;;;;;5.40;1.00;;;22.50;96.70;;;;;;4993519;28;20483;-80
2023/10/28 11:32:09;;;;;;;5.03;1.20;;;22.60;96.70;;;;;;5004771;28;20079;-79
2023/10/28 11:34:41;;;;;;;2.92;0.63;;;22.70;96.70;;;;;;5004217;28;20058;-77
2023/10/28 11:37:10;;;;;;;2.15;0.40;;;22.80;96.70;;;;;;5006279;28;20046;-78
2023/10/28 11:39:39;;;;;;;3.38;1.00;;;22.70;96.70;;;;;;5014727;28;20153;-78
2023/10/28 11:42:11;;;;;;;6.88;0.88;;;22.70;96.70;;;;;;5017621;28;20499;-80
2023/10/28 11:44:40;;;;;;;5.20;0.68;;;22.90;96.70;;;;;;5024257;28;20080;-77
2023/10/28 11:47:10;;;;;;;2.72;0.47;;;23.00;96.70;;;;;;4996252;28;20062;-77
2023/10/28 11:49:38;;;;;;;5.15;1.00;;;23.00;96.70;;;;;;5014250;28;20042;-77
2023/10/28 11:52:07;;;;;;;3.63;0.77;;;22.80;96.70;;;;;;5004669;28;20740;-78
2023/10/28 11:54:35;;;;;;;3.72;0.60;;;22.70;96.70;;;;;;4998910;28;20054;-77
2023/10/28 11:57:03;;;;;;;3.28;0.60;;;22.70;96.70;;;;;;4998958;28;20488;-78
2023/10/28 11:59:32;;;;;;;4.13;0.50;;;22.70;96.70;;;;;;5002162;28;20454;-78
2023/10/28 12:02:00;;;;;;;2.72;0.47;;;22.70;96.70;;;;;;5001536;28;20104;-77
2023/10/28 12:04:30;;;;;;;8.38;0.93;;;22.80;96.70;;;;;;5005620;28;20519;-78
2023/10/28 12:06:59;;;;;;;3.75;0.50;;;22.60;96.70;;;;;;5004219;28;20199;-77
2023/10/28 12:09:27;;;;;;;3.47;0.50;;;22.40;96.70;;;;;;5009003;28;20046;-77
2023/10/28 12:11:56;;;;;;;4.38;0.55;;;22.60;96.70;;;;;;5023414;28;20601;-77
2023/10/28 12:14:24;;;;;;;2.92;0.40;;;23.00;96.70;;;;;;5201687;22;20053;-78
2023/10/28 12:16:53;;;;;;;2.75;0.60;;;23.20;96.70;;;;;;5048581;28;20045;-76
2023/10/28 12:19:21;;;;;;;3.60;0.80;;;23.20;96.70;;;;;;5059555;28;20068;-77
2023/10/28 12:21:51;;;;;;;4.55;1.02;;;23.10;96.70;;;;;;5027986;28;20394;-76
2023/10/28 12:24:19;;;;;;;4.57;0.77;;;23.00;96.70;;;;;;5045560;28;20049;-80
2023/10/28 12:26:47;;;;;;;4.15;0.70;;;22.60;96.70;;;;;;5047529;28;20041;-78
2023/10/28 12:29:16;;;;;;;2.97;0.68;;;22.40;96.70;;;;;;5054792;28;20063;-78
2023/10/28 12:31:45;;;;;;;3.35;0.50;;;22.70;96.70;;;;;;5045113;28;20159;-77
2023/10/28 12:34:14;;;;;;;2.72;0.68;;;22.90;96.70;;;;;;5028455;28;20386;-79
2023/10/28 12:36:43;;;;;;;4.40;0.68;;;22.60;96.70;;;;;;5045888;28;20132;-79
2023/10/28 12:39:16;;;;;;;2.60;0.50;;;22.70;96.70;;;;;;5044963;28;20382;-78
2023/10/28 12:41:46;;;;;;;1.90;0.60;;;22.90;96.70;;;;;;5037484;28;20055;-79
2023/10/28 12:44:14;;;;;;;5.68;0.80;;;23.00;96.70;;;;;;5046521;28;20041;-79
2023/10/28 12:46:43;;;;;;;1.67;0.45;;;22.80;96.70;;;;;;5042142;28;20144;-78
2023/10/28 12:49:11;;;;;;;6.93;0.88;;;22.70;96.70;;;;;;5047845;28;20050;-78
2023/10/28 12:51:39;;;;;;;5.70;0.50;;;22.80;96.70;;;;;;5050165;28;20094;-78
2023/10/28 12:54:08;;;;;;;5.13;0.70;;;23.00;96.70;;;;;;5059985;28;20037;-79